sensor_id;sensor_type;location;lat;lon;timestamp;temperature;humidity
55693;DHT22;41590;53.366;5.212;2022-08-01T00:02:27;17.40;99.90
55693;DHT22;41590;53.366;5.212;2022-08-01T00:04:56;17.40;99.90
55693;DHT22;41590;53.366;5.212;2022-08-01T00:07:22;17.40;99.90
55693;DHT22;41590;53.366;5.212;2022-08-01T00:09:48;17.40;99.90
55693;DHT22;41590;53.366;5.212;2022-08-01T00:15:41;17.30;99.90
55693;DHT22;41590;53.366;5.212;2022-08-01T00:18:07;17.30;99.90
55693;DHT22;41590;53.366;5.212;2022-08-01T00:20:33;17.30;99.90
55693;DHT22;41590;53.366;5.212;2022-08-01T00:23:02;17.30;99.90
55693;DHT22;41590;53.366;5.212;2022-08-01T00:25:29;17.30;99.90
55693;DHT22;41590;53.366;5.212;2022-08-01T00:27:55;17.30;99.90
55693;DHT22;41590;53.366;5.212;2022-08-01T00:30:20;17.30;99.90
55693;DHT22;41590;53.366;5.212;2022-08-01T00:32:46;17.30;99.90
55693;DHT22;41590;53.366;5.212;2022-08-01T00:35:12;17.30;99.90
55693;DHT22;41590;53.366;5.212;2022-08-01T00:37:38;17.30;99.90
55693;DHT22;41590;53.366;5.212;2022-08-01T00:40:05;17.30;99.90
55693;DHT22;41590;53.366;5.212;2022-08-01T00:42:31;17.30;99.90
55693;DHT22;41590;53.366;5.212;2022-08-01T00:44:57;17.30;99.90
55693;DHT22;41590;53.366;5.212;2022-08-01T00:47:23;17.20;99.90
55693;DHT22;41590;53.366;5.212;2022-08-01T00:49:48;17.20;99.90
55693;DHT22;41590;53.366;5.212;2022-08-01T00:52:14;17.20;99.90
55693;DHT22;41590;53.366;5.212;2022-08-01T00:54:40;17.20;99.90
55693;DHT22;41590;53.366;5.212;2022-08-01T00:57:06;17.10;99.90
55693;DHT22;41590;53.366;5.212;2022-08-01T00:59:33;17.10;99.90
55693;DHT22;41590;53.366;5.212;2022-08-01T01:01:59;17.10;99.90
55693;DHT22;41590;53.366;5.212;2022-08-01T01:04:25;17.00;99.90
55693;DHT22;41590;53.366;5.212;2022-08-01T01:09:44;17.10;99.90
55693;DHT22;41590;53.366;5.212;2022-08-01T01:12:34;17.10;99.90
55693;DHT22;41590;53.366;5.212;2022-08-01T01:18:03;17.00;99.90
55693;DHT22;41590;53.366;5.212;2022-08-01T01:20:42;17.00;99.90
55693;DHT22;41590;53.366;5.212;2022-08-01T01:28:33;16.90;99.90
55693;DHT22;41590;53.366;5.212;2022-08-01T01:31:00;16.90;99.90
55693;DHT22;41590;53.366;5.212;2022-08-01T01:33:27;16.90;99.90
55693;DHT22;41590;53.366;5.212;2022-08-01T01:35:59;16.90;99.90
55693;DHT22;41590;53.366;5.212;2022-08-01T01:38:33;16.90;99.90
55693;DHT22;41590;53.366;5.212;2022-08-01T01:41:00;16.90;99.90
55693;DHT22;41590;53.366;5.212;2022-08-01T01:43:29;16.90;99.90
55693;DHT22;41590;53.366;5.212;2022-08-01T01:45:56;16.80;99.90
55693;DHT22;41590;53.366;5.212;2022-08-01T01:48:23;16.80;99.90
55693;DHT22;41590;53.366;5.212;2022-08-01T01:50:51;16.80;99.90
55693;DHT22;41590;53.366;5.212;2022-08-01T01:53:20;16.80;99.90
55693;DHT22;41590;53.366;5.212;2022-08-01T01:55:49;16.80;99.90
55693;DHT22;41590;53.366;5.212;2022-08-01T01:58:16;16.80;99.90
55693;DHT22;41590;53.366;5.212;2022-08-01T02:00:45;16.70;99.90
55693;DHT22;41590;53.366;5.212;2022-08-01T02:03:16;16.70;99.90
55693;DHT22;41590;53.366;5.212;2022-08-01T02:05:42;16.70;99.90
55693;DHT22;41590;53.366;5.212;2022-08-01T02:08:10;16.60;99.90
55693;DHT22;41590;53.366;5.212;2022-08-01T02:10:37;16.60;99.90
55693;DHT22;41590;53.366;5.212;2022-08-01T02:13:06;16.60;99.90
55693;DHT22;41590;53.366;5.212;2022-08-01T02:15:35;16.60;99.90
55693;DHT22;41590;53.366;5.212;2022-08-01T02:18:06;16.50;99.90
55693;DHT22;41590;53.366;5.212;2022-08-01T02:20:34;16.50;99.90
55693;DHT22;41590;53.366;5.212;2022-08-01T02:23:10;16.50;99.90
55693;DHT22;41590;53.366;5.212;2022-08-01T02:25:42;16.40;99.90
55693;DHT22;41590;53.366;5.212;2022-08-01T02:28:47;16.40;99.90
55693;DHT22;41590;53.366;5.212;2022-08-01T02:31:15;16.40;99.90
55693;DHT22;41590;53.366;5.212;2022-08-01T02:33:45;16.40;99.90
55693;DHT22;41590;53.366;5.212;2022-08-01T02:36:12;16.40;99.90
55693;DHT22;41590;53.366;5.212;2022-08-01T02:38:43;16.40;99.90
55693;DHT22;41590;53.366;5.212;2022-08-01T02:41:13;16.30;99.90
55693;DHT22;41590;53.366;5.212;2022-08-01T02:43:45;16.40;99.90
55693;DHT22;41590;53.366;5.212;2022-08-01T02:46:17;16.30;99.90
55693;DHT22;41590;53.366;5.212;2022-08-01T02:48:45;16.30;99.90
55693;DHT22;41590;53.366;5.212;2022-08-01T02:51:14;16.30;99.90
55693;DHT22;41590;53.366;5.212;2022-08-01T02:53:44;16.30;99.90
55693;DHT22;41590;53.366;5.212;2022-08-01T02:56:11;16.20;99.90
55693;DHT22;41590;53.366;5.212;2022-08-01T02:58:39;16.20;99.90
55693;DHT22;41590;53.366;5.212;2022-08-01T03:01:07;16.20;99.90
55693;DHT22;41590;53.366;5.212;2022-08-01T03:03:34;16.20;99.90
55693;DHT22;41590;53.366;5.212;2022-08-01T03:06:02;16.20;99.90
55693;DHT22;41590;53.366;5.212;2022-08-01T03:08:29;16.20;99.90
55693;DHT22;41590;53.366;5.212;2022-08-01T03:10:56;16.20;99.90
55693;DHT22;41590;53.366;5.212;2022-08-01T03:13:26;16.20;99.90
55693;DHT22;41590;53.366;5.212;2022-08-01T03:15:53;16.20;99.90
55693;DHT22;41590;53.366;5.212;2022-08-01T03:18:21;16.20;99.90
55693;DHT22;41590;53.366;5.212;2022-08-01T03:20:50;16.20;99.90
55693;DHT22;41590;53.366;5.212;2022-08-01T03:23:18;16.20;99.90
55693;DHT22;41590;53.366;5.212;2022-08-01T03:25:46;16.20;99.90
55693;DHT22;41590;53.366;5.212;2022-08-01T03:28:16;16.20;99.90
55693;DHT22;41590;53.366;5.212;2022-08-01T03:30:42;16.10;99.90
55693;DHT22;41590;53.366;5.212;2022-08-01T03:33:11;16.10;99.90
55693;DHT22;41590;53.366;5.212;2022-08-01T03:35:49;16.10;99.90
55693;DHT22;41590;53.366;5.212;2022-08-01T03:38:25;16.20;99.90
55693;DHT22;41590;53.366;5.212;2022-08-01T03:40:56;16.10;99.90
55693;DHT22;41590;53.366;5.212;2022-08-01T03:43:48;16.10;99.90
55693;DHT22;41590;53.366;5.212;2022-08-01T03:46:30;16.10;99.90
55693;DHT22;41590;53.366;5.212;2022-08-01T03:49:05;16.00;99.90
55693;DHT22;41590;53.366;5.212;2022-08-01T03:51:33;16.10;99.90
55693;DHT22;41590;53.366;5.212;2022-08-01T03:54:01;16.00;99.90
55693;DHT22;41590;53.366;5.212;2022-08-01T03:56:27;16.00;99.90
55693;DHT22;41590;53.366;5.212;2022-08-01T03:59:01;16.00;99.90
55693;DHT22;41590;53.366;5.212;2022-08-01T04:01:29;16.00;99.90
55693;DHT22;41590;53.366;5.212;2022-08-01T04:03:58;16.00;99.90
55693;DHT22;41590;53.366;5.212;2022-08-01T04:06:24;16.00;99.90
55693;DHT22;41590;53.366;5.212;2022-08-01T04:08:50;16.00;99.90
55693;DHT22;41590;53.366;5.212;2022-08-01T04:11:26;16.00;99.90
55693;DHT22;41590;53.366;5.212;2022-08-01T04:13:53;16.10;99.90
55693;DHT22;41590;53.366;5.212;2022-08-01T04:16:21;16.00;99.90
55693;DHT22;41590;53.366;5.212;2022-08-01T04:18:48;16.00;99.90
55693;DHT22;41590;53.366;5.212;2022-08-01T04:21:20;16.00;99.90
55693;DHT22;41590;53.366;5.212;2022-08-01T04:23:47;16.00;99.90
55693;DHT22;41590;53.366;5.212;2022-08-01T04:26:15;16.00;99.90
55693;DHT22;41590;53.366;5.212;2022-08-01T04:28:43;16.00;99.90
55693;DHT22;41590;53.366;5.212;2022-08-01T04:31:10;16.00;99.90
55693;DHT22;41590;53.366;5.212;2022-08-01T04:33:49;15.90;99.90
55693;DHT22;41590;53.366;5.212;2022-08-01T04:36:20;16.00;99.90
55693;DHT22;41590;53.366;5.212;2022-08-01T04:38:49;15.90;99.90
55693;DHT22;41590;53.366;5.212;2022-08-01T04:41:27;15.90;99.90
55693;DHT22;41590;53.366;5.212;2022-08-01T04:43:57;15.90;99.90
55693;DHT22;41590;53.366;5.212;2022-08-01T04:46:27;15.90;99.90
55693;DHT22;41590;53.366;5.212;2022-08-01T04:49:01;15.90;99.90
55693;DHT22;41590;53.366;5.212;2022-08-01T04:51:29;16.00;99.90
55693;DHT22;41590;53.366;5.212;2022-08-01T04:53:55;16.00;99.90
55693;DHT22;41590;53.366;5.212;2022-08-01T04:56:21;16.00;99.90
55693;DHT22;41590;53.366;5.212;2022-08-01T04:58:48;16.00;99.90
55693;DHT22;41590;53.366;5.212;2022-08-01T05:01:13;16.00;99.90
55693;DHT22;41590;53.366;5.212;2022-08-01T05:03:39;16.00;99.90
55693;DHT22;41590;53.366;5.212;2022-08-01T05:06:06;16.00;99.90
55693;DHT22;41590;53.366;5.212;2022-08-01T05:08:32;16.00;99.90
55693;DHT22;41590;53.366;5.212;2022-08-01T05:11:00;16.00;99.90
55693;DHT22;41590;53.366;5.212;2022-08-01T05:13:36;16.00;99.90
55693;DHT22;41590;53.366;5.212;2022-08-01T05:16:02;16.00;99.90
55693;DHT22;41590;53.366;5.212;2022-08-01T05:18:29;16.00;99.90
55693;DHT22;41590;53.366;5.212;2022-08-01T05:20:54;16.10;99.90
55693;DHT22;41590;53.366;5.212;2022-08-01T05:23:20;16.10;99.90
55693;DHT22;41590;53.366;5.212;2022-08-01T05:25:46;16.10;99.90
55693;DHT22;41590;53.366;5.212;2022-08-01T05:28:12;16.10;99.90
55693;DHT22;41590;53.366;5.212;2022-08-01T05:30:41;16.20;99.90
55693;DHT22;41590;53.366;5.212;2022-08-01T05:33:06;16.20;99.90
55693;DHT22;41590;53.366;5.212;2022-08-01T05:35:32;16.20;99.90
55693;DHT22;41590;53.366;5.212;2022-08-01T05:37:58;16.20;99.90
55693;DHT22;41590;53.366;5.212;2022-08-01T05:40:24;16.10;99.90
55693;DHT22;41590;53.366;5.212;2022-08-01T05:42:49;16.10;99.90
55693;DHT22;41590;53.366;5.212;2022-08-01T05:45:15;16.00;99.90
55693;DHT22;41590;53.366;5.212;2022-08-01T05:47:42;16.00;99.90
55693;DHT22;41590;53.366;5.212;2022-08-01T05:50:10;16.00;99.90
55693;DHT22;41590;53.366;5.212;2022-08-01T05:52:41;15.90;99.90
55693;DHT22;41590;53.366;5.212;2022-08-01T05:55:19;15.90;99.90
55693;DHT22;41590;53.366;5.212;2022-08-01T05:57:46;15.80;99.90
55693;DHT22;41590;53.366;5.212;2022-08-01T06:00:13;15.80;99.90
55693;DHT22;41590;53.366;5.212;2022-08-01T06:02:41;15.80;99.90
55693;DHT22;41590;53.366;5.212;2022-08-01T06:05:13;15.80;99.90
55693;DHT22;41590;53.366;5.212;2022-08-01T06:07:39;15.80;99.90
55693;DHT22;41590;53.366;5.212;2022-08-01T06:10:07;15.80;99.90
55693;DHT22;41590;53.366;5.212;2022-08-01T06:12:35;15.80;99.90
55693;DHT22;41590;53.366;5.212;2022-08-01T06:15:23;15.90;99.90
55693;DHT22;41590;53.366;5.212;2022-08-01T06:17:51;15.90;99.90
55693;DHT22;41590;53.366;5.212;2022-08-01T06:20:22;15.90;99.90
55693;DHT22;41590;53.366;5.212;2022-08-01T06:22:50;15.90;99.90
55693;DHT22;41590;53.366;5.212;2022-08-01T06:25:22;15.90;99.90
55693;DHT22;41590;53.366;5.212;2022-08-01T06:27:48;15.90;99.90
55693;DHT22;41590;53.366;5.212;2022-08-01T06:30:19;15.90;99.90
55693;DHT22;41590;53.366;5.212;2022-08-01T06:32:45;16.00;99.90
55693;DHT22;41590;53.366;5.212;2022-08-01T06:35:14;16.00;99.90
55693;DHT22;41590;53.366;5.212;2022-08-01T06:37:40;16.00;99.90
55693;DHT22;41590;53.366;5.212;2022-08-01T06:40:08;16.00;99.90
55693;DHT22;41590;53.366;5.212;2022-08-01T06:42:36;16.00;99.90
55693;DHT22;41590;53.366;5.212;2022-08-01T06:45:07;16.00;99.90
55693;DHT22;41590;53.366;5.212;2022-08-01T06:47:45;16.10;99.90
55693;DHT22;41590;53.366;5.212;2022-08-01T06:50:12;16.10;99.90
55693;DHT22;41590;53.366;5.212;2022-08-01T06:52:40;16.10;99.90
55693;DHT22;41590;53.366;5.212;2022-08-01T06:58:20;16.10;99.90
55693;DHT22;41590;53.366;5.212;2022-08-01T07:00:58;16.20;99.90
55693;DHT22;41590;53.366;5.212;2022-08-01T07:03:35;16.20;99.90
55693;DHT22;41590;53.366;5.212;2022-08-01T07:06:14;16.20;99.90
55693;DHT22;41590;53.366;5.212;2022-08-01T07:08:40;16.30;99.90
55693;DHT22;41590;53.366;5.212;2022-08-01T07:11:09;16.40;99.90
55693;DHT22;41590;53.366;5.212;2022-08-01T07:13:35;16.50;99.90
55693;DHT22;41590;53.366;5.212;2022-08-01T07:16:00;16.50;99.90
55693;DHT22;41590;53.366;5.212;2022-08-01T07:18:27;16.60;99.90
55693;DHT22;41590;53.366;5.212;2022-08-01T07:20:56;16.50;99.90
55693;DHT22;41590;53.366;5.212;2022-08-01T07:23:29;16.50;99.90
55693;DHT22;41590;53.366;5.212;2022-08-01T07:26:03;16.50;99.90
55693;DHT22;41590;53.366;5.212;2022-08-01T07:28:29;16.50;99.90
55693;DHT22;41590;53.366;5.212;2022-08-01T07:30:58;16.60;99.90
55693;DHT22;41590;53.366;5.212;2022-08-01T07:33:52;16.60;99.90
55693;DHT22;41590;53.366;5.212;2022-08-01T07:36:18;16.80;99.90
55693;DHT22;41590;53.366;5.212;2022-08-01T07:39:01;16.90;99.90
55693;DHT22;41590;53.366;5.212;2022-08-01T07:45:08;17.00;99.90
55693;DHT22;41590;53.366;5.212;2022-08-01T07:47:37;17.20;99.90
55693;DHT22;41590;53.366;5.212;2022-08-01T07:50:04;17.40;99.90
55693;DHT22;41590;53.366;5.212;2022-08-01T07:52:30;17.50;99.90
55693;DHT22;41590;53.366;5.212;2022-08-01T07:54:57;17.70;99.90
55693;DHT22;41590;53.366;5.212;2022-08-01T07:57:25;17.70;99.90
55693;DHT22;41590;53.366;5.212;2022-08-01T07:59:52;17.80;99.90
55693;DHT22;41590;53.366;5.212;2022-08-01T08:02:22;18.00;99.90
55693;DHT22;41590;53.366;5.212;2022-08-01T08:04:48;18.20;99.90
55693;DHT22;41590;53.366;5.212;2022-08-01T08:07:45;18.30;99.90
55693;DHT22;41590;53.366;5.212;2022-08-01T08:10:11;18.40;99.90
55693;DHT22;41590;53.366;5.212;2022-08-01T08:12:38;18.50;99.90
55693;DHT22;41590;53.366;5.212;2022-08-01T08:15:09;18.60;99.90
55693;DHT22;41590;53.366;5.212;2022-08-01T08:17:35;18.70;99.90
55693;DHT22;41590;53.366;5.212;2022-08-01T08:20:16;18.80;99.90
55693;DHT22;41590;53.366;5.212;2022-08-01T08:22:55;18.70;99.90
55693;DHT22;41590;53.366;5.212;2022-08-01T08:25:43;18.70;99.90
55693;DHT22;41590;53.366;5.212;2022-08-01T08:28:11;18.80;99.90
55693;DHT22;41590;53.366;5.212;2022-08-01T08:31:07;18.70;99.90
55693;DHT22;41590;53.366;5.212;2022-08-01T08:33:37;18.80;99.90
55693;DHT22;41590;53.366;5.212;2022-08-01T08:36:13;18.90;99.90
55693;DHT22;41590;53.366;5.212;2022-08-01T08:41:42;19.10;99.90
55693;DHT22;41590;53.366;5.212;2022-08-01T08:44:15;19.10;99.90
55693;DHT22;41590;53.366;5.212;2022-08-01T08:47:15;19.20;99.90
55693;DHT22;41590;53.366;5.212;2022-08-01T08:49:48;19.10;99.90
55693;DHT22;41590;53.366;5.212;2022-08-01T08:52:19;19.30;99.90
55693;DHT22;41590;53.366;5.212;2022-08-01T08:55:01;19.40;99.90
55693;DHT22;41590;53.366;5.212;2022-08-01T08:57:28;19.40;99.90
55693;DHT22;41590;53.366;5.212;2022-08-01T09:00:04;19.50;99.90
55693;DHT22;41590;53.366;5.212;2022-08-01T09:02:33;19.50;99.90
55693;DHT22;41590;53.366;5.212;2022-08-01T09:05:06;19.70;99.90
55693;DHT22;41590;53.366;5.212;2022-08-01T09:11:15;19.90;99.90
55693;DHT22;41590;53.366;5.212;2022-08-01T09:14:04;20.00;99.90
55693;DHT22;41590;53.366;5.212;2022-08-01T09:16:44;20.00;99.90
55693;DHT22;41590;53.366;5.212;2022-08-01T09:19:19;20.00;99.90
55693;DHT22;41590;53.366;5.212;2022-08-01T09:22:13;20.20;99.90
55693;DHT22;41590;53.366;5.212;2022-08-01T09:25:00;20.30;99.90
55693;DHT22;41590;53.366;5.212;2022-08-01T09:27:27;20.20;99.90
55693;DHT22;41590;53.366;5.212;2022-08-01T09:30:24;20.30;99.90
55693;DHT22;41590;53.366;5.212;2022-08-01T09:33:03;20.30;99.90
55693;DHT22;41590;53.366;5.212;2022-08-01T09:38:34;20.30;99.90
55693;DHT22;41590;53.366;5.212;2022-08-01T09:41:04;20.60;99.90
55693;DHT22;41590;53.366;5.212;2022-08-01T09:43:39;20.70;99.90
55693;DHT22;41590;53.366;5.212;2022-08-01T09:46:17;20.70;99.90
55693;DHT22;41590;53.366;5.212;2022-08-01T09:49:03;20.70;99.90
55693;DHT22;41590;53.366;5.212;2022-08-01T09:51:37;20.50;99.90
55693;DHT22;41590;53.366;5.212;2022-08-01T09:54:05;20.60;99.90
55693;DHT22;41590;53.366;5.212;2022-08-01T09:56:41;20.40;99.90
55693;DHT22;41590;53.366;5.212;2022-08-01T09:59:08;20.50;99.90
55693;DHT22;41590;53.366;5.212;2022-08-01T10:01:48;20.60;99.90
55693;DHT22;41590;53.366;5.212;2022-08-01T10:04:21;20.60;99.90
55693;DHT22;41590;53.366;5.212;2022-08-01T10:06:49;20.70;99.90
55693;DHT22;41590;53.366;5.212;2022-08-01T10:09:32;20.90;99.90
55693;DHT22;41590;53.366;5.212;2022-08-01T10:12:03;21.00;99.90
55693;DHT22;41590;53.366;5.212;2022-08-01T10:14:31;20.80;99.90
55693;DHT22;41590;53.366;5.212;2022-08-01T10:17:07;20.60;99.90
55693;DHT22;41590;53.366;5.212;2022-08-01T10:19:35;20.60;99.90
55693;DHT22;41590;53.366;5.212;2022-08-01T10:25:08;20.70;99.90
55693;DHT22;41590;53.366;5.212;2022-08-01T10:27:38;20.90;99.90
55693;DHT22;41590;53.366;5.212;2022-08-01T10:30:05;20.80;99.90
55693;DHT22;41590;53.366;5.212;2022-08-01T10:32:36;20.70;99.90
55693;DHT22;41590;53.366;5.212;2022-08-01T10:35:04;20.80;99.90
55693;DHT22;41590;53.366;5.212;2022-08-01T10:37:38;21.00;99.90
55693;DHT22;41590;53.366;5.212;2022-08-01T10:40:22;20.90;99.90
55693;DHT22;41590;53.366;5.212;2022-08-01T10:43:20;21.00;99.90
55693;DHT22;41590;53.366;5.212;2022-08-01T10:46:14;20.80;99.90
55693;DHT22;41590;53.366;5.212;2022-08-01T10:49:15;20.80;99.90
55693;DHT22;41590;53.366;5.212;2022-08-01T10:51:44;20.80;99.90
55693;DHT22;41590;53.366;5.212;2022-08-01T10:54:13;21.10;99.90
55693;DHT22;41590;53.366;5.212;2022-08-01T10:57:04;20.80;99.90
55693;DHT22;41590;53.366;5.212;2022-08-01T11:02:31;21.00;99.90
55693;DHT22;41590;53.366;5.212;2022-08-01T11:05:10;21.20;99.90
55693;DHT22;41590;53.366;5.212;2022-08-01T11:07:45;21.50;99.90
55693;DHT22;41590;53.366;5.212;2022-08-01T11:10:42;21.60;99.90
55693;DHT22;41590;53.366;5.212;2022-08-01T11:13:13;21.50;99.90
55693;DHT22;41590;53.366;5.212;2022-08-01T11:15:41;21.50;99.90
55693;DHT22;41590;53.366;5.212;2022-08-01T11:18:33;21.50;99.90
55693;DHT22;41590;53.366;5.212;2022-08-01T11:21:02;21.50;99.90
55693;DHT22;41590;53.366;5.212;2022-08-01T11:23:53;21.40;99.90
55693;DHT22;41590;53.366;5.212;2022-08-01T11:27:14;21.50;99.90
55693;DHT22;41590;53.366;5.212;2022-08-01T11:29:30;21.50;99.90
55693;DHT22;41590;53.366;5.212;2022-08-01T11:32:23;21.50;99.90
55693;DHT22;41590;53.366;5.212;2022-08-01T11:35:08;21.60;99.90
55693;DHT22;41590;53.366;5.212;2022-08-01T11:37:35;21.80;99.90
55693;DHT22;41590;53.366;5.212;2022-08-01T11:43:18;21.90;99.90
55693;DHT22;41590;53.366;5.212;2022-08-01T11:46:00;21.90;99.80
55693;DHT22;41590;53.366;5.212;2022-08-01T11:48:37;21.90;99.10
55693;DHT22;41590;53.366;5.212;2022-08-01T11:54:46;21.60;96.40
55693;DHT22;41590;53.366;5.212;2022-08-01T11:57:26;21.70;98.30
55693;DHT22;41590;53.366;5.212;2022-08-01T12:00:10;21.60;97.70
55693;DHT22;41590;53.366;5.212;2022-08-01T12:03:01;21.70;97.60
55693;DHT22;41590;53.366;5.212;2022-08-01T12:05:33;21.50;98.40
55693;DHT22;41590;53.366;5.212;2022-08-01T12:08:01;21.70;99.00
55693;DHT22;41590;53.366;5.212;2022-08-01T12:10:33;22.00;98.50
55693;DHT22;41590;53.366;5.212;2022-08-01T12:13:11;22.20;98.70
55693;DHT22;41590;53.366;5.212;2022-08-01T12:15:41;22.30;98.00
55693;DHT22;41590;53.366;5.212;2022-08-01T12:18:42;22.40;98.20
55693;DHT22;41590;53.366;5.212;2022-08-01T12:21:08;22.20;95.40
55693;DHT22;41590;53.366;5.212;2022-08-01T12:26:59;22.40;95.90
55693;DHT22;41590;53.366;5.212;2022-08-01T12:29:39;22.30;96.60
55693;DHT22;41590;53.366;5.212;2022-08-01T12:32:31;22.40;96.80
55693;DHT22;41590;53.366;5.212;2022-08-01T12:35:08;22.40;96.30
55693;DHT22;41590;53.366;5.212;2022-08-01T12:38:05;22.30;95.70
55693;DHT22;41590;53.366;5.212;2022-08-01T12:40:55;22.30;95.60
55693;DHT22;41590;53.366;5.212;2022-08-01T12:43:22;22.30;95.80
55693;DHT22;41590;53.366;5.212;2022-08-01T12:46:03;22.40;96.10
55693;DHT22;41590;53.366;5.212;2022-08-01T12:48:36;22.50;96.60
55693;DHT22;41590;53.366;5.212;2022-08-01T12:51:08;22.40;96.90
55693;DHT22;41590;53.366;5.212;2022-08-01T12:53:42;22.40;96.70
55693;DHT22;41590;53.366;5.212;2022-08-01T12:56:31;22.20;95.70
55693;DHT22;41590;53.366;5.212;2022-08-01T12:59:01;22.40;97.90
55693;DHT22;41590;53.366;5.212;2022-08-01T13:01:33;22.50;97.00
55693;DHT22;41590;53.366;5.212;2022-08-01T13:04:03;22.20;96.80
55693;DHT22;41590;53.366;5.212;2022-08-01T13:06:31;21.90;96.60
55693;DHT22;41590;53.366;5.212;2022-08-01T13:09:09;21.70;97.70
55693;DHT22;41590;53.366;5.212;2022-08-01T13:11:40;21.80;98.10
55693;DHT22;41590;53.366;5.212;2022-08-01T13:14:11;21.60;99.00
55693;DHT22;41590;53.366;5.212;2022-08-01T13:16:51;21.80;99.40
55693;DHT22;41590;53.366;5.212;2022-08-01T13:19:17;22.00;98.40
55693;DHT22;41590;53.366;5.212;2022-08-01T13:21:57;22.00;98.20
55693;DHT22;41590;53.366;5.212;2022-08-01T13:24:25;21.90;97.30
55693;DHT22;41590;53.366;5.212;2022-08-01T13:26:57;22.00;97.80
55693;DHT22;41590;53.366;5.212;2022-08-01T13:29:33;21.90;97.00
55693;DHT22;41590;53.366;5.212;2022-08-01T13:35:12;21.70;97.90
55693;DHT22;41590;53.366;5.212;2022-08-01T13:37:45;21.60;97.10
55693;DHT22;41590;53.366;5.212;2022-08-01T13:40:31;21.70;98.80
55693;DHT22;41590;53.366;5.212;2022-08-01T13:42:57;21.80;97.20
55693;DHT22;41590;53.366;5.212;2022-08-01T13:45:26;21.60;98.60
55693;DHT22;41590;53.366;5.212;2022-08-01T13:51:13;21.70;96.80
55693;DHT22;41590;53.366;5.212;2022-08-01T13:53:39;21.60;97.50
55693;DHT22;41590;53.366;5.212;2022-08-01T13:56:13;21.60;98.10
55693;DHT22;41590;53.366;5.212;2022-08-01T13:58:40;21.50;97.40
55693;DHT22;41590;53.366;5.212;2022-08-01T14:01:08;21.60;98.50
55693;DHT22;41590;53.366;5.212;2022-08-01T14:03:35;21.50;98.40
55693;DHT22;41590;53.366;5.212;2022-08-01T14:06:07;21.20;98.50
55693;DHT22;41590;53.366;5.212;2022-08-01T14:08:36;21.30;98.50
55693;DHT22;41590;53.366;5.212;2022-08-01T14:11:02;21.30;97.60
55693;DHT22;41590;53.366;5.212;2022-08-01T14:13:30;21.40;97.50
55693;DHT22;41590;53.366;5.212;2022-08-01T14:16:24;21.30;97.90
55693;DHT22;41590;53.366;5.212;2022-08-01T14:18:55;21.20;98.00
55693;DHT22;41590;53.366;5.212;2022-08-01T14:21:26;21.40;98.40
55693;DHT22;41590;53.366;5.212;2022-08-01T14:24:04;21.40;98.00
55693;DHT22;41590;53.366;5.212;2022-08-01T14:26:41;21.40;98.20
55693;DHT22;41590;53.366;5.212;2022-08-01T14:29:06;21.40;97.40
55693;DHT22;41590;53.366;5.212;2022-08-01T14:31:36;21.40;97.70
55693;DHT22;41590;53.366;5.212;2022-08-01T14:34:04;21.30;97.80
55693;DHT22;41590;53.366;5.212;2022-08-01T14:39:37;21.20;97.50
55693;DHT22;41590;53.366;5.212;2022-08-01T14:42:03;21.40;98.60
55693;DHT22;41590;53.366;5.212;2022-08-01T14:44:37;21.40;97.60
55693;DHT22;41590;53.366;5.212;2022-08-01T14:47:06;21.30;97.50
55693;DHT22;41590;53.366;5.212;2022-08-01T14:49:35;21.20;97.60
55693;DHT22;41590;53.366;5.212;2022-08-01T14:52:03;21.10;97.30
55693;DHT22;41590;53.366;5.212;2022-08-01T14:54:31;21.10;97.40
55693;DHT22;41590;53.366;5.212;2022-08-01T14:57:01;21.10;97.60
55693;DHT22;41590;53.366;5.212;2022-08-01T14:59:27;21.10;97.90
55693;DHT22;41590;53.366;5.212;2022-08-01T15:01:59;21.20;97.90
55693;DHT22;41590;53.366;5.212;2022-08-01T15:07:46;21.50;96.70
55693;DHT22;41590;53.366;5.212;2022-08-01T15:10:12;21.30;97.00
55693;DHT22;41590;53.366;5.212;2022-08-01T15:12:38;21.30;97.00
55693;DHT22;41590;53.366;5.212;2022-08-01T15:15:15;21.30;97.00
55693;DHT22;41590;53.366;5.212;2022-08-01T15:17:41;21.30;97.00
55693;DHT22;41590;53.366;5.212;2022-08-01T15:20:07;21.20;97.20
55693;DHT22;41590;53.366;5.212;2022-08-01T15:22:37;21.20;97.40
55693;DHT22;41590;53.366;5.212;2022-08-01T15:25:06;21.20;97.40
55693;DHT22;41590;53.366;5.212;2022-08-01T15:27:32;21.20;97.30
55693;DHT22;41590;53.366;5.212;2022-08-01T15:29:58;21.10;96.70
55693;DHT22;41590;53.366;5.212;2022-08-01T15:32:25;21.00;96.90
55693;DHT22;41590;53.366;5.212;2022-08-01T15:34:52;20.90;97.60
55693;DHT22;41590;53.366;5.212;2022-08-01T15:37:18;21.00;97.90
55693;DHT22;41590;53.366;5.212;2022-08-01T15:39:48;21.00;97.60
55693;DHT22;41590;53.366;5.212;2022-08-01T15:42:16;21.10;97.70
55693;DHT22;41590;53.366;5.212;2022-08-01T15:44:44;21.10;97.00
55693;DHT22;41590;53.366;5.212;2022-08-01T15:47:14;20.90;97.20
55693;DHT22;41590;53.366;5.212;2022-08-01T15:49:39;21.00;97.20
55693;DHT22;41590;53.366;5.212;2022-08-01T15:52:06;21.00;97.20
55693;DHT22;41590;53.366;5.212;2022-08-01T15:54:33;20.90;96.70
55693;DHT22;41590;53.366;5.212;2022-08-01T15:57:05;20.90;96.90
55693;DHT22;41590;53.366;5.212;2022-08-01T15:59:36;21.00;96.90
55693;DHT22;41590;53.366;5.212;2022-08-01T16:02:32;20.90;95.60
55693;DHT22;41590;53.366;5.212;2022-08-01T16:05:01;20.70;96.70
55693;DHT22;41590;53.366;5.212;2022-08-01T16:07:45;20.60;97.30
55693;DHT22;41590;53.366;5.212;2022-08-01T16:10:16;20.50;96.30
55693;DHT22;41590;53.366;5.212;2022-08-01T16:12:42;20.50;96.80
55693;DHT22;41590;53.366;5.212;2022-08-01T16:15:14;20.50;97.10
55693;DHT22;41590;53.366;5.212;2022-08-01T16:17:43;20.50;97.10
55693;DHT22;41590;53.366;5.212;2022-08-01T16:20:15;20.60;97.10
55693;DHT22;41590;53.366;5.212;2022-08-01T16:23:02;20.50;97.20
55693;DHT22;41590;53.366;5.212;2022-08-01T16:25:31;20.60;97.50
55693;DHT22;41590;53.366;5.212;2022-08-01T16:31:46;20.50;97.50
55693;DHT22;41590;53.366;5.212;2022-08-01T16:37:18;20.30;96.40
55693;DHT22;41590;53.366;5.212;2022-08-01T16:39:46;20.40;97.10
55693;DHT22;41590;53.366;5.212;2022-08-01T16:42:15;20.20;96.90
55693;DHT22;41590;53.366;5.212;2022-08-01T16:44:43;20.30;97.70
55693;DHT22;41590;53.366;5.212;2022-08-01T16:47:09;20.20;98.20
55693;DHT22;41590;53.366;5.212;2022-08-01T16:49:36;20.20;97.60
55693;DHT22;41590;53.366;5.212;2022-08-01T16:52:07;20.30;98.00
55693;DHT22;41590;53.366;5.212;2022-08-01T16:54:34;20.20;96.60
55693;DHT22;41590;53.366;5.212;2022-08-01T16:57:00;20.20;96.90
55693;DHT22;41590;53.366;5.212;2022-08-01T16:59:27;20.10;97.40
55693;DHT22;41590;53.366;5.212;2022-08-01T17:01:53;20.10;97.90
55693;DHT22;41590;53.366;5.212;2022-08-01T17:04:18;20.10;97.80
55693;DHT22;41590;53.366;5.212;2022-08-01T17:06:44;20.10;97.60